sensor_id;sensor_type;location;lat;lon;timestamp;P1;durP1;ratioP1;P2;durP2;ratioP2
78740;SDS011;68062;48.726;9.370;2023-03-31T00:01:58;3.03;;;2.40;;
78740;SDS011;68062;48.726;9.370;2023-03-31T00:04:26;4.07;;;3.03;;
78740;SDS011;68062;48.726;9.370;2023-03-31T00:06:56;4.60;;;3.23;;
78740;SDS011;68062;48.726;9.370;2023-03-31T00:09:24;4.47;;;2.77;;
78740;SDS011;68062;48.726;9.370;2023-03-31T00:11:54;5.60;;;2.70;;
78740;SDS011;68062;48.726;9.370;2023-03-31T00:14:21;4.03;;;2.30;;
78740;SDS011;68062;48.726;9.370;2023-03-31T00:16:48;5.03;;;2.23;;
78740;SDS011;68062;48.726;9.370;2023-03-31T00:19:14;3.90;;;2.47;;
78740;SDS011;68062;48.726;9.370;2023-03-31T00:21:44;3.90;;;2.57;;
78740;SDS011;68062;48.726;9.370;2023-03-31T00:24:12;3.23;;;1.80;;
78740;SDS011;68062;48.726;9.370;2023-03-31T00:27:00;2.33;;;1.90;;
78740;SDS011;68062;48.726;9.370;2023-03-31T00:29:29;4.93;;;2.60;;
78740;SDS011;68062;48.726;9.370;2023-03-31T00:31:57;3.50;;;2.23;;
78740;SDS011;68062;48.726;9.370;2023-03-31T00:34:24;4.27;;;2.60;;
78740;SDS011;68062;48.726;9.370;2023-03-31T00:36:52;2.40;;;2.20;;
78740;SDS011;68062;48.726;9.370;2023-03-31T00:39:21;4.37;;;2.70;;
78740;SDS011;68062;48.726;9.370;2023-03-31T00:41:49;3.47;;;2.10;;
78740;SDS011;68062;48.726;9.370;2023-03-31T00:44:18;5.60;;;2.60;;
78740;SDS011;68062;48.726;9.370;2023-03-31T00:46:50;3.97;;;2.17;;
78740;SDS011;68062;48.726;9.370;2023-03-31T00:49:22;5.17;;;2.30;;
78740;SDS011;68062;48.726;9.370;2023-03-31T00:51:53;7.50;;;1.83;;
78740;SDS011;68062;48.726;9.370;2023-03-31T00:54:22;2.93;;;1.93;;
78740;SDS011;68062;48.726;9.370;2023-03-31T00:56:51;7.47;;;2.03;;
78740;SDS011;68062;48.726;9.370;2023-03-31T00:59:24;2.80;;;2.23;;
78740;SDS011;68062;48.726;9.370;2023-03-31T01:01:53;4.87;;;2.07;;
78740;SDS011;68062;48.726;9.370;2023-03-31T01:04:26;8.60;;;2.17;;
78740;SDS011;68062;48.726;9.370;2023-03-31T01:06:58;4.03;;;2.33;;
78740;SDS011;68062;48.726;9.370;2023-03-31T01:09:29;6.00;;;3.27;;
78740;SDS011;68062;48.726;9.370;2023-03-31T01:12:00;2.67;;;1.77;;
78740;SDS011;68062;48.726;9.370;2023-03-31T01:14:30;2.10;;;1.90;;
78740;SDS011;68062;48.726;9.370;2023-03-31T01:16:58;3.60;;;2.40;;
78740;SDS011;68062;48.726;9.370;2023-03-31T01:19:28;4.03;;;2.03;;
78740;SDS011;68062;48.726;9.370;2023-03-31T01:22:16;4.20;;;2.37;;
78740;SDS011;68062;48.726;9.370;2023-03-31T01:25:06;5.00;;;2.53;;
78740;SDS011;68062;48.726;9.370;2023-03-31T01:30:55;4.13;;;2.53;;
78740;SDS011;68062;48.726;9.370;2023-03-31T01:33:55;4.03;;;2.57;;
78740;SDS011;68062;48.726;9.370;2023-03-31T01:36:53;5.40;;;2.47;;
78740;SDS011;68062;48.726;9.370;2023-03-31T01:42:33;4.57;;;2.50;;
78740;SDS011;68062;48.726;9.370;2023-03-31T01:45:06;7.33;;;3.07;;
78740;SDS011;68062;48.726;9.370;2023-03-31T01:47:45;11.10;;;3.17;;
78740;SDS011;68062;48.726;9.370;2023-03-31T01:50:21;4.47;;;2.60;;
78740;SDS011;68062;48.726;9.370;2023-03-31T01:52:56;3.47;;;2.30;;
78740;SDS011;68062;48.726;9.370;2023-03-31T01:55:30;4.10;;;2.33;;
78740;SDS011;68062;48.726;9.370;2023-03-31T01:58:03;5.33;;;3.10;;
78740;SDS011;68062;48.726;9.370;2023-03-31T02:00:35;3.83;;;2.60;;
78740;SDS011;68062;48.726;9.370;2023-03-31T02:03:08;4.57;;;2.73;;
78740;SDS011;68062;48.726;9.370;2023-03-31T02:05:40;7.57;;;3.30;;
78740;SDS011;68062;48.726;9.370;2023-03-31T02:08:11;4.27;;;2.30;;
78740;SDS011;68062;48.726;9.370;2023-03-31T02:10:43;5.00;;;2.73;;
78740;SDS011;68062;48.726;9.370;2023-03-31T02:13:11;10.37;;;3.53;;
78740;SDS011;68062;48.726;9.370;2023-03-31T02:15:41;7.07;;;2.80;;
78740;SDS011;68062;48.726;9.370;2023-03-31T02:18:12;5.40;;;3.00;;
78740;SDS011;68062;48.726;9.370;2023-03-31T02:20:45;4.23;;;2.40;;
78740;SDS011;68062;48.726;9.370;2023-03-31T02:23:14;4.27;;;2.50;;
78740;SDS011;68062;48.726;9.370;2023-03-31T02:25:52;5.27;;;2.33;;
78740;SDS011;68062;48.726;9.370;2023-03-31T02:28:23;3.37;;;2.33;;
78740;SDS011;68062;48.726;9.370;2023-03-31T02:30:55;3.10;;;2.27;;
78740;SDS011;68062;48.726;9.370;2023-03-31T02:33:31;3.40;;;2.30;;
78740;SDS011;68062;48.726;9.370;2023-03-31T02:35:58;4.20;;;2.33;;
78740;SDS011;68062;48.726;9.370;2023-03-31T02:38:26;5.23;;;2.87;;
78740;SDS011;68062;48.726;9.370;2023-03-31T02:40:55;7.13;;;2.70;;
78740;SDS011;68062;48.726;9.370;2023-03-31T02:43:21;6.40;;;2.70;;
78740;SDS011;68062;48.726;9.370;2023-03-31T02:45:49;4.90;;;2.40;;
78740;SDS011;68062;48.726;9.370;2023-03-31T02:48:17;3.10;;;2.00;;
78740;SDS011;68062;48.726;9.370;2023-03-31T02:51:12;3.60;;;2.07;;
78740;SDS011;68062;48.726;9.370;2023-03-31T02:54:02;5.00;;;2.60;;
78740;SDS011;68062;48.726;9.370;2023-03-31T02:56:56;4.30;;;2.20;;
78740;SDS011;68062;48.726;9.370;2023-03-31T02:59:39;4.60;;;2.67;;
78740;SDS011;68062;48.726;9.370;2023-03-31T03:02:17;5.50;;;2.40;;
78740;SDS011;68062;48.726;9.370;2023-03-31T03:05:00;2.77;;;2.17;;
78740;SDS011;68062;48.726;9.370;2023-03-31T03:07:56;4.10;;;3.20;;
78740;SDS011;68062;48.726;9.370;2023-03-31T03:10:32;3.97;;;2.67;;
78740;SDS011;68062;48.726;9.370;2023-03-31T03:13:08;5.20;;;2.90;;
78740;SDS011;68062;48.726;9.370;2023-03-31T03:15:43;6.77;;;2.60;;
78740;SDS011;68062;48.726;9.370;2023-03-31T03:18:13;6.87;;;2.53;;
78740;SDS011;68062;48.726;9.370;2023-03-31T03:20:41;5.00;;;2.87;;
78740;SDS011;68062;48.726;9.370;2023-03-31T03:23:12;5.40;;;2.40;;
78740;SDS011;68062;48.726;9.370;2023-03-31T03:25:39;5.37;;;2.30;;
78740;SDS011;68062;48.726;9.370;2023-03-31T03:28:08;6.43;;;2.73;;
78740;SDS011;68062;48.726;9.370;2023-03-31T03:30:35;6.10;;;3.67;;
78740;SDS011;68062;48.726;9.370;2023-03-31T03:33:02;4.13;;;2.23;;
78740;SDS011;68062;48.726;9.370;2023-03-31T03:35:30;5.73;;;2.33;;
78740;SDS011;68062;48.726;9.370;2023-03-31T03:37:59;3.87;;;2.20;;
78740;SDS011;68062;48.726;9.370;2023-03-31T03:40:26;2.00;;;1.90;;
78740;SDS011;68062;48.726;9.370;2023-03-31T03:42:53;5.10;;;2.00;;
78740;SDS011;68062;48.726;9.370;2023-03-31T03:45:22;2.87;;;2.30;;
78740;SDS011;68062;48.726;9.370;2023-03-31T03:47:49;6.80;;;2.70;;
78740;SDS011;68062;48.726;9.370;2023-03-31T03:50:16;4.60;;;2.43;;
78740;SDS011;68062;48.726;9.370;2023-03-31T03:52:43;5.03;;;2.70;;
78740;SDS011;68062;48.726;9.370;2023-03-31T03:55:10;5.40;;;2.60;;
78740;SDS011;68062;48.726;9.370;2023-03-31T03:57:37;4.53;;;2.33;;
78740;SDS011;68062;48.726;9.370;2023-03-31T04:00:05;3.97;;;2.63;;
78740;SDS011;68062;48.726;9.370;2023-03-31T04:02:38;5.60;;;2.60;;
78740;SDS011;68062;48.726;9.370;2023-03-31T04:05:05;8.63;;;2.90;;
78740;SDS011;68062;48.726;9.370;2023-03-31T04:07:32;3.93;;;2.80;;
78740;SDS011;68062;48.726;9.370;2023-03-31T04:09:59;3.90;;;3.30;;
78740;SDS011;68062;48.726;9.370;2023-03-31T04:12:26;10.27;;;3.80;;
78740;SDS011;68062;48.726;9.370;2023-03-31T04:14:53;3.70;;;3.17;;
78740;SDS011;68062;48.726;9.370;2023-03-31T04:17:19;5.57;;;3.70;;
78740;SDS011;68062;48.726;9.370;2023-03-31T04:19:58;7.87;;;3.20;;
78740;SDS011;68062;48.726;9.370;2023-03-31T04:22:26;5.60;;;3.13;;
78740;SDS011;68062;48.726;9.370;2023-03-31T04:25:00;3.10;;;2.90;;
78740;SDS011;68062;48.726;9.370;2023-03-31T04:27:28;3.20;;;3.00;;
78740;SDS011;68062;48.726;9.370;2023-03-31T04:29:55;6.87;;;2.97;;
78740;SDS011;68062;48.726;9.370;2023-03-31T04:32:21;6.33;;;3.13;;
78740;SDS011;68062;48.726;9.370;2023-03-31T04:34:49;4.20;;;3.00;;
78740;SDS011;68062;48.726;9.370;2023-03-31T04:37:17;5.67;;;3.60;;
78740;SDS011;68062;48.726;9.370;2023-03-31T04:39:44;6.17;;;3.53;;
78740;SDS011;68062;48.726;9.370;2023-03-31T04:42:15;8.30;;;4.10;;
78740;SDS011;68062;48.726;9.370;2023-03-31T04:44:42;5.90;;;3.50;;
78740;SDS011;68062;48.726;9.370;2023-03-31T04:47:09;8.13;;;3.30;;
78740;SDS011;68062;48.726;9.370;2023-03-31T04:49:35;5.83;;;3.23;;
78740;SDS011;68062;48.726;9.370;2023-03-31T04:52:02;8.57;;;4.17;;
78740;SDS011;68062;48.726;9.370;2023-03-31T04:54:30;8.30;;;4.10;;
78740;SDS011;68062;48.726;9.370;2023-03-31T04:56:57;6.47;;;3.50;;
78740;SDS011;68062;48.726;9.370;2023-03-31T04:59:23;7.80;;;4.53;;
78740;SDS011;68062;48.726;9.370;2023-03-31T05:01:50;6.80;;;4.37;;
78740;SDS011;68062;48.726;9.370;2023-03-31T05:04:16;7.10;;;4.33;;
78740;SDS011;68062;48.726;9.370;2023-03-31T05:06:43;6.30;;;3.97;;
78740;SDS011;68062;48.726;9.370;2023-03-31T05:09:09;7.57;;;3.80;;
78740;SDS011;68062;48.726;9.370;2023-03-31T05:11:37;8.00;;;4.23;;
78740;SDS011;68062;48.726;9.370;2023-03-31T05:14:04;9.20;;;4.10;;
78740;SDS011;68062;48.726;9.370;2023-03-31T05:16:31;4.77;;;3.77;;
78740;SDS011;68062;48.726;9.370;2023-03-31T05:18:58;10.23;;;5.90;;
78740;SDS011;68062;48.726;9.370;2023-03-31T05:21:25;6.10;;;3.90;;
78740;SDS011;68062;48.726;9.370;2023-03-31T05:23:54;8.43;;;4.80;;
78740;SDS011;68062;48.726;9.370;2023-03-31T05:26:21;5.03;;;4.00;;
78740;SDS011;68062;48.726;9.370;2023-03-31T05:28:50;8.07;;;4.83;;
78740;SDS011;68062;48.726;9.370;2023-03-31T05:31:18;9.03;;;4.20;;
78740;SDS011;68062;48.726;9.370;2023-03-31T05:33:45;7.43;;;5.30;;
78740;SDS011;68062;48.726;9.370;2023-03-31T05:36:12;7.77;;;4.63;;
78740;SDS011;68062;48.726;9.370;2023-03-31T05:38:40;5.00;;;3.77;;
78740;SDS011;68062;48.726;9.370;2023-03-31T05:41:08;7.60;;;4.20;;
78740;SDS011;68062;48.726;9.370;2023-03-31T05:43:36;10.47;;;5.33;;
78740;SDS011;68062;48.726;9.370;2023-03-31T05:46:05;9.53;;;4.50;;
78740;SDS011;68062;48.726;9.370;2023-03-31T05:48:31;8.10;;;4.90;;
78740;SDS011;68062;48.726;9.370;2023-03-31T05:50:59;6.43;;;4.67;;
78740;SDS011;68062;48.726;9.370;2023-03-31T05:53:26;7.90;;;4.87;;
78740;SDS011;68062;48.726;9.370;2023-03-31T05:55:55;5.40;;;4.07;;
78740;SDS011;68062;48.726;9.370;2023-03-31T05:58:22;7.53;;;5.40;;
78740;SDS011;68062;48.726;9.370;2023-03-31T06:00:50;10.10;;;5.13;;
78740;SDS011;68062;48.726;9.370;2023-03-31T06:03:26;8.60;;;4.43;;
78740;SDS011;68062;48.726;9.370;2023-03-31T06:05:53;14.83;;;5.83;;
78740;SDS011;68062;48.726;9.370;2023-03-31T06:08:19;10.03;;;7.13;;
78740;SDS011;68062;48.726;9.370;2023-03-31T06:10:46;10.70;;;5.20;;
78740;SDS011;68062;48.726;9.370;2023-03-31T06:13:12;10.80;;;5.57;;
78740;SDS011;68062;48.726;9.370;2023-03-31T06:15:39;9.23;;;5.70;;
78740;SDS011;68062;48.726;9.370;2023-03-31T06:18:06;10.37;;;5.70;;
78740;SDS011;68062;48.726;9.370;2023-03-31T06:20:36;9.37;;;5.10;;
78740;SDS011;68062;48.726;9.370;2023-03-31T06:23:03;9.53;;;5.40;;
78740;SDS011;68062;48.726;9.370;2023-03-31T06:25:29;13.83;;;6.70;;
78740;SDS011;68062;48.726;9.370;2023-03-31T06:27:56;8.00;;;6.03;;
78740;SDS011;68062;48.726;9.370;2023-03-31T06:30:23;9.77;;;5.47;;
78740;SDS011;68062;48.726;9.370;2023-03-31T06:32:50;9.43;;;5.43;;
78740;SDS011;68062;48.726;9.370;2023-03-31T06:35:17;10.73;;;6.20;;
78740;SDS011;68062;48.726;9.370;2023-03-31T06:37:45;8.80;;;5.93;;
78740;SDS011;68062;48.726;9.370;2023-03-31T06:40:12;11.07;;;6.33;;
78740;SDS011;68062;48.726;9.370;2023-03-31T06:42:39;10.17;;;5.83;;
78740;SDS011;68062;48.726;9.370;2023-03-31T06:45:05;10.60;;;5.83;;
78740;SDS011;68062;48.726;9.370;2023-03-31T06:47:32;10.87;;;7.00;;
78740;SDS011;68062;48.726;9.370;2023-03-31T06:49:59;9.77;;;6.30;;
78740;SDS011;68062;48.726;9.370;2023-03-31T06:52:26;13.60;;;6.23;;
78740;SDS011;68062;48.726;9.370;2023-03-31T06:54:54;12.53;;;7.13;;
78740;SDS011;68062;48.726;9.370;2023-03-31T06:57:20;16.63;;;9.33;;
78740;SDS011;68062;48.726;9.370;2023-03-31T06:59:47;14.77;;;8.20;;
78740;SDS011;68062;48.726;9.370;2023-03-31T07:02:14;10.13;;;7.33;;
78740;SDS011;68062;48.726;9.370;2023-03-31T07:04:41;11.53;;;5.83;;
78740;SDS011;68062;48.726;9.370;2023-03-31T07:07:07;16.53;;;8.10;;
78740;SDS011;68062;48.726;9.370;2023-03-31T07:09:34;12.33;;;8.40;;
78740;SDS011;68062;48.726;9.370;2023-03-31T07:12:02;13.50;;;8.20;;
78740;SDS011;68062;48.726;9.370;2023-03-31T07:14:29;15.97;;;8.60;;
78740;SDS011;68062;48.726;9.370;2023-03-31T07:16:56;12.87;;;7.03;;
78740;SDS011;68062;48.726;9.370;2023-03-31T07:19:23;13.67;;;7.30;;
78740;SDS011;68062;48.726;9.370;2023-03-31T07:21:50;12.80;;;6.00;;
78740;SDS011;68062;48.726;9.370;2023-03-31T07:24:17;11.40;;;6.53;;
78740;SDS011;68062;48.726;9.370;2023-03-31T07:26:44;11.00;;;6.37;;
78740;SDS011;68062;48.726;9.370;2023-03-31T07:29:12;10.00;;;5.67;;
78740;SDS011;68062;48.726;9.370;2023-03-31T07:31:38;8.10;;;4.90;;
78740;SDS011;68062;48.726;9.370;2023-03-31T07:34:05;7.57;;;4.80;;
78740;SDS011;68062;48.726;9.370;2023-03-31T07:36:32;6.53;;;4.77;;
78740;SDS011;68062;48.726;9.370;2023-03-31T07:38:59;5.83;;;4.37;;
78740;SDS011;68062;48.726;9.370;2023-03-31T07:41:25;4.17;;;3.93;;
78740;SDS011;68062;48.726;9.370;2023-03-31T07:43:52;7.43;;;3.50;;
78740;SDS011;68062;48.726;9.370;2023-03-31T07:46:21;3.90;;;2.97;;
78740;SDS011;68062;48.726;9.370;2023-03-31T07:48:49;4.00;;;2.33;;
78740;SDS011;68062;48.726;9.370;2023-03-31T07:51:17;3.50;;;2.10;;
78740;SDS011;68062;48.726;9.370;2023-03-31T07:53:46;2.50;;;1.83;;
78740;SDS011;68062;48.726;9.370;2023-03-31T07:56:16;1.60;;;1.53;;
78740;SDS011;68062;48.726;9.370;2023-03-31T07:58:44;1.70;;;1.10;;
78740;SDS011;68062;48.726;9.370;2023-03-31T08:01:12;2.60;;;1.50;;
78740;SDS011;68062;48.726;9.370;2023-03-31T08:03:42;2.50;;;1.40;;
78740;SDS011;68062;48.726;9.370;2023-03-31T08:06:11;3.60;;;1.17;;
78740;SDS011;68062;48.726;9.370;2023-03-31T08:08:38;1.50;;;1.40;;
78740;SDS011;68062;48.726;9.370;2023-03-31T08:11:07;2.10;;;1.50;;
78740;SDS011;68062;48.726;9.370;2023-03-31T08:13:34;2.40;;;2.20;;
78740;SDS011;68062;48.726;9.370;2023-03-31T08:16:00;1.73;;;1.10;;
78740;SDS011;68062;48.726;9.370;2023-03-31T08:18:28;2.37;;;1.40;;
78740;SDS011;68062;48.726;9.370;2023-03-31T08:20:56;2.83;;;1.87;;
78740;SDS011;68062;48.726;9.370;2023-03-31T08:23:22;2.87;;;1.67;;
78740;SDS011;68062;48.726;9.370;2023-03-31T08:25:49;1.57;;;1.47;;
78740;SDS011;68062;48.726;9.370;2023-03-31T08:28:17;2.50;;;1.40;;
78740;SDS011;68062;48.726;9.370;2023-03-31T08:30:44;4.60;;;1.73;;
78740;SDS011;68062;48.726;9.370;2023-03-31T08:33:12;1.77;;;1.70;;
78740;SDS011;68062;48.726;9.370;2023-03-31T08:35:39;3.70;;;1.70;;
78740;SDS011;68062;48.726;9.370;2023-03-31T08:38:07;2.73;;;1.80;;
78740;SDS011;68062;48.726;9.370;2023-03-31T08:40:41;1.33;;;1.23;;
78740;SDS011;68062;48.726;9.370;2023-03-31T08:43:09;2.63;;;1.20;;
78740;SDS011;68062;48.726;9.370;2023-03-31T08:45:42;1.47;;;1.30;;
78740;SDS011;68062;48.726;9.370;2023-03-31T08:48:13;1.47;;;1.30;;
78740;SDS011;68062;48.726;9.370;2023-03-31T08:50:51;4.00;;;1.30;;
78740;SDS011;68062;48.726;9.370;2023-03-31T08:53:26;6.37;;;1.10;;
78740;SDS011;68062;48.726;9.370;2023-03-31T08:55:55;1.57;;;1.50;;
78740;SDS011;68062;48.726;9.370;2023-03-31T08:58:27;1.60;;;1.10;;
78740;SDS011;68062;48.726;9.370;2023-03-31T09:01:00;1.47;;;0.90;;
78740;SDS011;68062;48.726;9.370;2023-03-31T09:03:33;3.60;;;1.20;;
78740;SDS011;68062;48.726;9.370;2023-03-31T09:06:10;2.60;;;1.53;;
78740;SDS011;68062;48.726;9.370;2023-03-31T09:08:42;2.20;;;0.90;;
78740;SDS011;68062;48.726;9.370;2023-03-31T09:11:12;2.10;;;1.10;;
78740;SDS011;68062;48.726;9.370;2023-03-31T09:13:52;1.57;;;0.90;;
78740;SDS011;68062;48.726;9.370;2023-03-31T09:16:34;2.10;;;1.20;;
78740;SDS011;68062;48.726;9.370;2023-03-31T09:19:07;1.20;;;0.80;;
78740;SDS011;68062;48.726;9.370;2023-03-31T09:21:39;1.07;;;0.70;;
78740;SDS011;68062;48.726;9.370;2023-03-31T09:24:11;2.20;;;0.80;;
78740;SDS011;68062;48.726;9.370;2023-03-31T09:26:45;1.20;;;1.13;;
78740;SDS011;68062;48.726;9.370;2023-03-31T09:29:18;1.43;;;0.70;;
78740;SDS011;68062;48.726;9.370;2023-03-31T09:31:51;0.70;;;0.57;;
78740;SDS011;68062;48.726;9.370;2023-03-31T09:34:20;2.87;;;1.10;;
78740;SDS011;68062;48.726;9.370;2023-03-31T09:36:50;2.60;;;1.10;;
78740;SDS011;68062;48.726;9.370;2023-03-31T09:39:19;2.17;;;0.80;;
78740;SDS011;68062;48.726;9.370;2023-03-31T09:41:47;1.00;;;0.83;;
78740;SDS011;68062;48.726;9.370;2023-03-31T09:44:26;1.10;;;1.10;;
78740;SDS011;68062;48.726;9.370;2023-03-31T09:47:02;1.77;;;0.73;;
78740;SDS011;68062;48.726;9.370;2023-03-31T09:49:32;1.80;;;1.00;;
78740;SDS011;68062;48.726;9.370;2023-03-31T09:52:03;2.10;;;0.90;;
78740;SDS011;68062;48.726;9.370;2023-03-31T09:54:35;2.40;;;0.80;;
78740;SDS011;68062;48.726;9.370;2023-03-31T09:57:11;3.70;;;1.10;;
78740;SDS011;68062;48.726;9.370;2023-03-31T09:59:39;4.23;;;1.17;;
78740;SDS011;68062;48.726;9.370;2023-03-31T10:05:04;1.77;;;1.30;;
78740;SDS011;68062;48.726;9.370;2023-03-31T10:07:33;2.83;;;1.30;;
78740;SDS011;68062;48.726;9.370;2023-03-31T10:10:02;2.73;;;0.93;;
78740;SDS011;68062;48.726;9.370;2023-03-31T10:12:34;3.00;;;1.17;;
78740;SDS011;68062;48.726;9.370;2023-03-31T10:15:02;2.90;;;1.13;;
78740;SDS011;68062;48.726;9.370;2023-03-31T10:17:43;1.70;;;0.83;;
78740;SDS011;68062;48.726;9.370;2023-03-31T10:20:27;2.40;;;1.30;;
78740;SDS011;68062;48.726;9.370;2023-03-31T10:25:41;1.67;;;1.47;;
78740;SDS011;68062;48.726;9.370;2023-03-31T10:28:10;4.27;;;1.40;;
78740;SDS011;68062;48.726;9.370;2023-03-31T10:30:41;6.07;;;1.40;;
78740;SDS011;68062;48.726;9.370;2023-03-31T10:33:15;2.07;;;0.90;;
78740;SDS011;68062;48.726;9.370;2023-03-31T10:35:46;1.67;;;0.90;;
78740;SDS011;68062;48.726;9.370;2023-03-31T10:38:16;2.77;;;1.03;;
78740;SDS011;68062;48.726;9.370;2023-03-31T10:40:50;3.90;;;1.37;;
78740;SDS011;68062;48.726;9.370;2023-03-31T10:43:20;2.63;;;1.30;;
78740;SDS011;68062;48.726;9.370;2023-03-31T10:45:57;2.20;;;0.90;;
78740;SDS011;68062;48.726;9.370;2023-03-31T10:48:26;5.40;;;2.13;;
78740;SDS011;68062;48.726;9.370;2023-03-31T10:50:54;4.33;;;1.23;;
78740;SDS011;68062;48.726;9.370;2023-03-31T10:53:26;3.87;;;1.70;;
78740;SDS011;68062;48.726;9.370;2023-03-31T10:56:03;2.27;;;1.07;;
78740;SDS011;68062;48.726;9.370;2023-03-31T10:58:49;2.30;;;1.73;;
78740;SDS011;68062;48.726;9.370;2023-03-31T11:01:30;1.90;;;0.90;;
78740;SDS011;68062;48.726;9.370;2023-03-31T11:04:11;1.37;;;0.97;;
78740;SDS011;68062;48.726;9.370;2023-03-31T11:07:07;3.93;;;1.20;;
78740;SDS011;68062;48.726;9.370;2023-03-31T11:09:47;2.40;;;0.93;;
78740;SDS011;68062;48.726;9.370;2023-03-31T11:12:32;9.37;;;1.50;;
78740;SDS011;68062;48.726;9.370;2023-03-31T11:15:07;5.73;;;0.93;;
78740;SDS011;68062;48.726;9.370;2023-03-31T11:17:49;3.53;;;1.60;;
78740;SDS011;68062;48.726;9.370;2023-03-31T11:20:29;3.33;;;1.60;;
78740;SDS011;68062;48.726;9.370;2023-03-31T11:23:05;5.40;;;1.93;;
78740;SDS011;68062;48.726;9.370;2023-03-31T11:25:43;4.40;;;1.53;;
78740;SDS011;68062;48.726;9.370;2023-03-31T11:28:22;3.57;;;1.00;;
78740;SDS011;68062;48.726;9.370;2023-03-31T11:30:57;2.40;;;0.83;;
78740;SDS011;68062;48.726;9.370;2023-03-31T11:33:40;0.63;;;0.53;;
78740;SDS011;68062;48.726;9.370;2023-03-31T11:36:21;0.87;;;0.60;;
78740;SDS011;68062;48.726;9.370;2023-03-31T11:39:14;4.73;;;0.60;;
78740;SDS011;68062;48.726;9.370;2023-03-31T11:41:52;0.90;;;0.67;;
78740;SDS011;68062;48.726;9.370;2023-03-31T11:44:24;0.80;;;0.50;;
78740;SDS011;68062;48.726;9.370;2023-03-31T11:47:19;1.37;;;0.60;;
78740;SDS011;68062;48.726;9.370;2023-03-31T11:50:02;2.33;;;0.70;;
78740;SDS011;68062;48.726;9.370;2023-03-31T11:52:47;2.73;;;0.80;;
78740;SDS011;68062;48.726;9.370;2023-03-31T11:55:24;0.80;;;0.57;;
78740;SDS011;68062;48.726;9.370;2023-03-31T11:57:56;2.23;;;0.67;;
78740;SDS011;68062;48.726;9.370;2023-03-31T12:00:29;0.87;;;0.50;;
78740;SDS011;68062;48.726;9.370;2023-03-31T12:03:01;0.70;;;0.50;;
78740;SDS011;68062;48.726;9.370;2023-03-31T12:05:36;1.27;;;0.50;;
78740;SDS011;68062;48.726;9.370;2023-03-31T12:08:09;0.53;;;0.50;;
78740;SDS011;68062;48.726;9.370;2023-03-31T12:10:42;1.33;;;0.50;;
78740;SDS011;68062;48.726;9.370;2023-03-31T12:13:22;1.13;;;0.50;;
78740;SDS011;68062;48.726;9.370;2023-03-31T12:16:00;0.83;;;0.50;;
78740;SDS011;68062;48.726;9.370;2023-03-31T12:18:33;0.57;;;0.53;;
78740;SDS011;68062;48.726;9.370;2023-03-31T12:21:05;0.60;;;0.43;;
78740;SDS011;68062;48.726;9.370;2023-03-31T12:23:34;0.70;;;0.50;;
78740;SDS011;68062;48.726;9.370;2023-03-31T12:26:07;0.90;;;0.30;;
78740;SDS011;68062;48.726;9.370;2023-03-31T12:28:43;0.90;;;0.50;;
78740;SDS011;68062;48.726;9.370;2023-03-31T12:31:15;0.73;;;0.50;;
78740;SDS011;68062;48.726;9.370;2023-03-31T12:33:45;2.00;;;0.60;;
78740;SDS011;68062;48.726;9.370;2023-03-31T12:36:21;1.60;;;0.57;;
78740;SDS011;68062;48.726;9.370;2023-03-31T12:39:00;2.17;;;0.50;;
78740;SDS011;68062;48.726;9.370;2023-03-31T12:41:39;1.03;;;0.50;;
78740;SDS011;68062;48.726;9.370;2023-03-31T12:44:23;0.90;;;0.60;;
78740;SDS011;68062;48.726;9.370;2023-03-31T12:47:01;0.70;;;0.50;;
78740;SDS011;68062;48.726;9.370;2023-03-31T12:49:47;0.57;;;0.43;;
78740;SDS011;68062;48.726;9.370;2023-03-31T12:52:26;0.70;;;0.40;;
78740;SDS011;68062;48.726;9.370;2023-03-31T12:55:17;3.60;;;0.50;;
78740;SDS011;68062;48.726;9.370;2023-03-31T12:58:05;1.43;;;0.80;;
78740;SDS011;68062;48.726;9.370;2023-03-31T13:01:05;3.13;;;0.73;;
78740;SDS011;68062;48.726;9.370;2023-03-31T13:03:37;0.80;;;0.50;;
78740;SDS011;68062;48.726;9.370;2023-03-31T13:06:26;1.17;;;0.77;;
78740;SDS011;68062;48.726;9.370;2023-03-31T13:12:07;1.30;;;0.80;;
78740;SDS011;68062;48.726;9.370;2023-03-31T13:14:41;1.93;;;0.70;;
78740;SDS011;68062;48.726;9.370;2023-03-31T13:17:10;1.23;;;0.70;;
78740;SDS011;68062;48.726;9.370;2023-03-31T13:19:40;3.43;;;0.70;;
78740;SDS011;68062;48.726;9.370;2023-03-31T13:22:19;1.50;;;0.80;;
78740;SDS011;68062;48.726;9.370;2023-03-31T13:24:55;1.73;;;0.60;;
78740;SDS011;68062;48.726;9.370;2023-03-31T13:28:07;0.90;;;0.77;;
78740;SDS011;68062;48.726;9.370;2023-03-31T13:30:49;1.40;;;0.80;;
78740;SDS011;68062;48.726;9.370;2023-03-31T13:33:25;3.40;;;0.70;;
78740;SDS011;68062;48.726;9.370;2023-03-31T13:36:02;1.33;;;1.00;;
78740;SDS011;68062;48.726;9.370;2023-03-31T13:38:44;2.90;;;1.20;;
78740;SDS011;68062;48.726;9.370;2023-03-31T13:41:22;1.83;;;1.20;;
78740;SDS011;68062;48.726;9.370;2023-03-31T13:44:21;5.13;;;1.40;;
78740;SDS011;68062;48.726;9.370;2023-03-31T13:47:03;3.10;;;2.07;;
78740;SDS011;68062;48.726;9.370;2023-03-31T13:50:19;1.33;;;0.60;;
78740;SDS011;68062;48.726;9.370;2023-03-31T13:53:03;2.93;;;0.83;;
78740;SDS011;68062;48.726;9.370;2023-03-31T13:55:53;0.93;;;0.60;;
78740;SDS011;68062;48.726;9.370;2023-03-31T13:58:48;2.50;;;0.43;;
78740;SDS011;68062;48.726;9.370;2023-03-31T14:04:54;0.40;;;0.37;;
78740;SDS011;68062;48.726;9.370;2023-03-31T14:07:41;1.33;;;0.50;;
78740;SDS011;68062;48.726;9.370;2023-03-31T14:10:20;0.60;;;0.40;;
78740;SDS011;68062;48.726;9.370;2023-03-31T14:13:02;0.60;;;0.50;;
78740;SDS011;68062;48.726;9.370;2023-03-31T14:15:30;1.00;;;0.40;;
78740;SDS011;68062;48.726;9.370;2023-03-31T14:17:57;1.97;;;0.60;;
78740;SDS011;68062;48.726;9.370;2023-03-31T14:20:25;1.13;;;0.47;;
78740;SDS011;68062;48.726;9.370;2023-03-31T14:23:01;0.77;;;0.50;;
78740;SDS011;68062;48.726;9.370;2023-03-31T14:25:39;1.23;;;1.00;;
78740;SDS011;68062;48.726;9.370;2023-03-31T14:28:18;2.40;;;0.60;;
78740;SDS011;68062;48.726;9.370;2023-03-31T14:31:00;0.80;;;0.53;;
78740;SDS011;68062;48.726;9.370;2023-03-31T14:33:36;0.70;;;0.40;;
78740;SDS011;68062;48.726;9.370;2023-03-31T14:36:12;1.53;;;0.53;;
78740;SDS011;68062;48.726;9.370;2023-03-31T14:38:47;1.03;;;0.40;;
78740;SDS011;68062;48.726;9.370;2023-03-31T14:41:15;0.70;;;0.50;;
78740;SDS011;68062;48.726;9.370;2023-03-31T14:43:47;0.80;;;0.40;;
78740;SDS011;68062;48.726;9.370;2023-03-31T14:46:18;1.67;;;0.50;;
78740;SDS011;68062;48.726;9.370;2023-03-31T14:48:48;0.60;;;0.50;;
78740;SDS011;68062;48.726;9.370;2023-03-31T14:51:17;2.33;;;0.40;;
78740;SDS011;68062;48.726;9.370;2023-03-31T14:53:45;1.53;;;0.40;;
78740;SDS011;68062;48.726;9.370;2023-03-31T14:56:13;1.33;;;0.40;;
78740;SDS011;68062;48.726;9.370;2023-03-31T14:58:44;1.70;;;0.30;;
78740;SDS011;68062;48.726;9.370;2023-03-31T15:01:17;1.30;;;0.60;;
78740;SDS011;68062;48.726;9.370;2023-03-31T15:03:49;1.80;;;0.50;;
78740;SDS011;68062;48.726;9.370;2023-03-31T15:06:18;0.70;;;0.47;;
78740;SDS011;68062;48.726;9.370;2023-03-31T15:08:45;1.43;;;0.60;;
78740;SDS011;68062;48.726;9.370;2023-03-31T15:11:14;0.97;;;0.60;;
78740;SDS011;68062;48.726;9.370;2023-03-31T15:13:45;1.73;;;0.40;;
78740;SDS011;68062;48.726;9.370;2023-03-31T15:16:18;3.90;;;1.17;;
78740;SDS011;68062;48.726;9.370;2023-03-31T15:18:47;2.70;;;0.77;;
78740;SDS011;68062;48.726;9.370;2023-03-31T15:21:19;0.60;;;0.50;;
78740;SDS011;68062;48.726;9.370;2023-03-31T15:23:46;0.50;;;0.50;;
78740;SDS011;68062;48.726;9.370;2023-03-31T15:26:18;1.60;;;0.60;;
78740;SDS011;68062;48.726;9.370;2023-03-31T15:28:51;2.20;;;0.60;;
78740;SDS011;68062;48.726;9.370;2023-03-31T15:31:22;1.57;;;0.60;;
78740;SDS011;68062;48.726;9.370;2023-03-31T15:33:51;1.37;;;0.50;;
78740;SDS011;68062;48.726;9.370;2023-03-31T15:36:19;0.70;;;0.40;;